sensor_id;sensor_type;location;lat;lon;timestamp;P1;durP1;ratioP1;P2;durP2;ratioP2
41229;SDS011;26964;50.428;19.218;2024-01-07T00:00:13;20.3;;;13.3;;
41229;SDS011;26964;50.428;19.218;2024-01-07T00:01:12;19.5;;;13.2;;
41229;SDS011;26964;50.428;19.218;2024-01-07T00:02:12;18.7;;;11.6;;
41229;SDS011;26964;50.428;19.218;2024-01-07T00:03:12;16.0;;;11.8;;
41229;SDS011;26964;50.428;19.218;2024-01-07T00:04:12;16.5;;;11.9;;
41229;SDS011;26964;50.428;19.218;2024-01-07T00:05:12;17.7;;;12.0;;
41229;SDS011;26964;50.428;19.218;2024-01-07T00:06:12;17.0;;;11.8;;
41229;SDS011;26964;50.428;19.218;2024-01-07T00:07:12;14.4;;;10.5;;
41229;SDS011;26964;50.428;19.218;2024-01-07T00:08:12;16.3;;;10.6;;
41229;SDS011;26964;50.428;19.218;2024-01-07T00:09:12;16.6;;;11.5;;
41229;SDS011;26964;50.428;19.218;2024-01-07T00:10:12;15.4;;;11.0;;
41229;SDS011;26964;50.428;19.218;2024-01-07T00:11:12;15.4;;;10.6;;
41229;SDS011;26964;50.428;19.218;2024-01-07T00:12:12;15.1;;;10.9;;
41229;SDS011;26964;50.428;19.218;2024-01-07T00:13:12;15.8;;;11.0;;
41229;SDS011;26964;50.428;19.218;2024-01-07T00:14:14;16.5;;;10.8;;
41229;SDS011;26964;50.428;19.218;2024-01-07T00:15:12;17.5;;;11.4;;
41229;SDS011;26964;50.428;19.218;2024-01-07T00:16:12;15.6;;;11.0;;
41229;SDS011;26964;50.428;19.218;2024-01-07T00:17:13;14.9;;;10.6;;
41229;SDS011;26964;50.428;19.218;2024-01-07T00:18:12;16.9;;;10.5;;
41229;SDS011;26964;50.428;19.218;2024-01-07T00:19:12;13.9;;;10.4;;
41229;SDS011;26964;50.428;19.218;2024-01-07T00:20:12;14.1;;;9.8;;
41229;SDS011;26964;50.428;19.218;2024-01-07T00:21:12;14.9;;;10.5;;
41229;SDS011;26964;50.428;19.218;2024-01-07T00:22:12;15.5;;;10.2;;
41229;SDS011;26964;50.428;19.218;2024-01-07T00:23:12;16.3;;;10.7;;
41229;SDS011;26964;50.428;19.218;2024-01-07T00:24:12;18.5;;;11.1;;
41229;SDS011;26964;50.428;19.218;2024-01-07T00:25:12;15.6;;;10.3;;
41229;SDS011;26964;50.428;19.218;2024-01-07T00:26:12;15.2;;;10.3;;
41229;SDS011;26964;50.428;19.218;2024-01-07T00:27:12;15.9;;;10.4;;
41229;SDS011;26964;50.428;19.218;2024-01-07T00:28:12;13.8;;;9.7;;
41229;SDS011;26964;50.428;19.218;2024-01-07T00:29:13;12.9;;;9.1;;
41229;SDS011;26964;50.428;19.218;2024-01-07T00:30:12;14.5;;;9.7;;
41229;SDS011;26964;50.428;19.218;2024-01-07T00:31:12;14.4;;;10.1;;
41229;SDS011;26964;50.428;19.218;2024-01-07T00:32:12;13.8;;;9.8;;
41229;SDS011;26964;50.428;19.218;2024-01-07T00:33:12;13.7;;;9.8;;
41229;SDS011;26964;50.428;19.218;2024-01-07T00:34:12;15.0;;;9.1;;
41229;SDS011;26964;50.428;19.218;2024-01-07T00:35:12;13.2;;;9.3;;
41229;SDS011;26964;50.428;19.218;2024-01-07T00:36:12;13.3;;;9.3;;
41229;SDS011;26964;50.428;19.218;2024-01-07T00:37:12;12.1;;;8.8;;
41229;SDS011;26964;50.428;19.218;2024-01-07T00:38:12;13.9;;;9.2;;
41229;SDS011;26964;50.428;19.218;2024-01-07T00:39:12;12.4;;;9.0;;
41229;SDS011;26964;50.428;19.218;2024-01-07T00:40:13;15.9;;;9.0;;
41229;SDS011;26964;50.428;19.218;2024-01-07T00:41:13;11.5;;;8.2;;
41229;SDS011;26964;50.428;19.218;2024-01-07T00:42:13;12.4;;;8.4;;
41229;SDS011;26964;50.428;19.218;2024-01-07T00:43:13;12.7;;;8.6;;
41229;SDS011;26964;50.428;19.218;2024-01-07T00:44:12;12.6;;;9.0;;
41229;SDS011;26964;50.428;19.218;2024-01-07T00:45:12;13.3;;;8.8;;
41229;SDS011;26964;50.428;19.218;2024-01-07T00:46:12;13.1;;;8.5;;
41229;SDS011;26964;50.428;19.218;2024-01-07T00:47:12;12.8;;;8.9;;
41229;SDS011;26964;50.428;19.218;2024-01-07T00:48:13;14.0;;;9.2;;
41229;SDS011;26964;50.428;19.218;2024-01-07T00:49:12;11.9;;;8.4;;
41229;SDS011;26964;50.428;19.218;2024-01-07T00:50:12;11.9;;;8.8;;
41229;SDS011;26964;50.428;19.218;2024-01-07T00:51:12;11.3;;;7.8;;
41229;SDS011;26964;50.428;19.218;2024-01-07T00:52:12;12.5;;;8.2;;
41229;SDS011;26964;50.428;19.218;2024-01-07T00:53:12;12.0;;;8.2;;
41229;SDS011;26964;50.428;19.218;2024-01-07T00:54:13;11.7;;;8.0;;
41229;SDS011;26964;50.428;19.218;2024-01-07T00:55:12;14.2;;;8.3;;
41229;SDS011;26964;50.428;19.218;2024-01-07T00:56:12;11.4;;;7.6;;
41229;SDS011;26964;50.428;19.218;2024-01-07T00:57:13;12.0;;;7.8;;
41229;SDS011;26964;50.428;19.218;2024-01-07T00:58:12;13.0;;;7.9;;
41229;SDS011;26964;50.428;19.218;2024-01-07T00:59:12;10.6;;;7.4;;
41229;SDS011;26964;50.428;19.218;2024-01-07T01:00:12;11.4;;;7.6;;
41229;SDS011;26964;50.428;19.218;2024-01-07T01:01:12;12.5;;;8.0;;
41229;SDS011;26964;50.428;19.218;2024-01-07T01:02:12;12.0;;;7.4;;
41229;SDS011;26964;50.428;19.218;2024-01-07T01:03:12;11.0;;;7.4;;
41229;SDS011;26964;50.428;19.218;2024-01-07T01:04:12;11.0;;;7.3;;
41229;SDS011;26964;50.428;19.218;2024-01-07T01:05:12;11.6;;;7.2;;
41229;SDS011;26964;50.428;19.218;2024-01-07T01:06:12;11.4;;;7.5;;
41229;SDS011;26964;50.428;19.218;2024-01-07T01:07:12;10.2;;;6.7;;
41229;SDS011;26964;50.428;19.218;2024-01-07T01:08:12;10.7;;;6.8;;
41229;SDS011;26964;50.428;19.218;2024-01-07T01:09:12;10.2;;;7.3;;
41229;SDS011;26964;50.428;19.218;2024-01-07T01:10:12;9.9;;;7.3;;
41229;SDS011;26964;50.428;19.218;2024-01-07T01:11:24;11.3;;;7.2;;
41229;SDS011;26964;50.428;19.218;2024-01-07T01:12:12;9.7;;;6.9;;
41229;SDS011;26964;50.428;19.218;2024-01-07T01:13:12;11.2;;;7.0;;
41229;SDS011;26964;50.428;19.218;2024-01-07T01:14:12;11.5;;;6.8;;
41229;SDS011;26964;50.428;19.218;2024-01-07T01:15:12;11.6;;;7.0;;
41229;SDS011;26964;50.428;19.218;2024-01-07T01:16:12;9.4;;;6.7;;
41229;SDS011;26964;50.428;19.218;2024-01-07T01:17:12;10.0;;;6.7;;
41229;SDS011;26964;50.428;19.218;2024-01-07T01:18:12;10.6;;;6.5;;
41229;SDS011;26964;50.428;19.218;2024-01-07T01:19:12;11.1;;;6.9;;
41229;SDS011;26964;50.428;19.218;2024-01-07T01:20:12;10.2;;;6.9;;
41229;SDS011;26964;50.428;19.218;2024-01-07T01:21:12;10.4;;;6.9;;
41229;SDS011;26964;50.428;19.218;2024-01-07T01:22:12;11.5;;;6.9;;
41229;SDS011;26964;50.428;19.218;2024-01-07T01:23:12;10.2;;;6.7;;
41229;SDS011;26964;50.428;19.218;2024-01-07T01:24:12;11.6;;;6.8;;
41229;SDS011;26964;50.428;19.218;2024-01-07T01:25:12;12.3;;;7.1;;
41229;SDS011;26964;50.428;19.218;2024-01-07T01:26:12;10.8;;;6.5;;
41229;SDS011;26964;50.428;19.218;2024-01-07T01:27:13;10.4;;;7.0;;
41229;SDS011;26964;50.428;19.218;2024-01-07T01:28:12;11.1;;;6.7;;
41229;SDS011;26964;50.428;19.218;2024-01-07T01:29:12;10.3;;;6.6;;
41229;SDS011;26964;50.428;19.218;2024-01-07T01:30:12;9.0;;;6.5;;
41229;SDS011;26964;50.428;19.218;2024-01-07T01:31:12;10.9;;;7.1;;
41229;SDS011;26964;50.428;19.218;2024-01-07T01:32:12;10.2;;;6.8;;
41229;SDS011;26964;50.428;19.218;2024-01-07T01:33:12;10.3;;;6.9;;
41229;SDS011;26964;50.428;19.218;2024-01-07T01:34:12;9.6;;;6.2;;
41229;SDS011;26964;50.428;19.218;2024-01-07T01:35:13;10.2;;;6.0;;
41229;SDS011;26964;50.428;19.218;2024-01-07T01:36:12;11.6;;;7.1;;
41229;SDS011;26964;50.428;19.218;2024-01-07T01:37:12;10.3;;;5.8;;
41229;SDS011;26964;50.428;19.218;2024-01-07T01:38:12;11.0;;;6.9;;
41229;SDS011;26964;50.428;19.218;2024-01-07T01:39:12;11.5;;;7.1;;
41229;SDS011;26964;50.428;19.218;2024-01-07T01:40:12;12.9;;;7.6;;
41229;SDS011;26964;50.428;19.218;2024-01-07T01:41:12;11.2;;;6.3;;
41229;SDS011;26964;50.428;19.218;2024-01-07T01:42:12;11.7;;;6.8;;
41229;SDS011;26964;50.428;19.218;2024-01-07T01:43:12;10.6;;;6.9;;
41229;SDS011;26964;50.428;19.218;2024-01-07T01:44:12;10.7;;;6.7;;
41229;SDS011;26964;50.428;19.218;2024-01-07T01:45:12;10.7;;;6.5;;
41229;SDS011;26964;50.428;19.218;2024-01-07T01:46:12;10.0;;;6.3;;
41229;SDS011;26964;50.428;19.218;2024-01-07T01:47:12;10.6;;;7.1;;
41229;SDS011;26964;50.428;19.218;2024-01-07T01:48:12;11.0;;;6.5;;
41229;SDS011;26964;50.428;19.218;2024-01-07T01:49:16;10.8;;;6.4;;
41229;SDS011;26964;50.428;19.218;2024-01-07T01:50:12;8.6;;;6.1;;
41229;SDS011;26964;50.428;19.218;2024-01-07T01:51:12;10.9;;;6.5;;
41229;SDS011;26964;50.428;19.218;2024-01-07T01:52:12;10.2;;;5.9;;
41229;SDS011;26964;50.428;19.218;2024-01-07T01:53:12;7.7;;;5.3;;
41229;SDS011;26964;50.428;19.218;2024-01-07T01:54:12;10.7;;;6.0;;
41229;SDS011;26964;50.428;19.218;2024-01-07T01:55:12;9.1;;;5.6;;
41229;SDS011;26964;50.428;19.218;2024-01-07T01:56:12;12.3;;;6.5;;
41229;SDS011;26964;50.428;19.218;2024-01-07T01:57:13;9.0;;;5.8;;
41229;SDS011;26964;50.428;19.218;2024-01-07T01:58:13;9.8;;;5.9;;
41229;SDS011;26964;50.428;19.218;2024-01-07T01:59:13;15.4;;;7.6;;
41229;SDS011;26964;50.428;19.218;2024-01-07T02:00:13;8.3;;;6.2;;
41229;SDS011;26964;50.428;19.218;2024-01-07T02:01:12;10.8;;;6.8;;
41229;SDS011;26964;50.428;19.218;2024-01-07T02:02:13;11.1;;;6.7;;
41229;SDS011;26964;50.428;19.218;2024-01-07T02:03:12;10.9;;;6.4;;
41229;SDS011;26964;50.428;19.218;2024-01-07T02:04:13;9.5;;;5.8;;
41229;SDS011;26964;50.428;19.218;2024-01-07T02:05:13;10.2;;;6.5;;
41229;SDS011;26964;50.428;19.218;2024-01-07T02:06:12;10.4;;;5.8;;
41229;SDS011;26964;50.428;19.218;2024-01-07T02:07:12;8.7;;;6.0;;
41229;SDS011;26964;50.428;19.218;2024-01-07T02:08:12;10.6;;;6.0;;
41229;SDS011;26964;50.428;19.218;2024-01-07T02:09:12;9.2;;;5.8;;
41229;SDS011;26964;50.428;19.218;2024-01-07T02:10:12;9.5;;;6.3;;
41229;SDS011;26964;50.428;19.218;2024-01-07T02:11:14;9.8;;;6.4;;
41229;SDS011;26964;50.428;19.218;2024-01-07T02:12:12;9.9;;;5.4;;
41229;SDS011;26964;50.428;19.218;2024-01-07T02:13:12;8.8;;;5.9;;
41229;SDS011;26964;50.428;19.218;2024-01-07T02:14:12;10.0;;;6.4;;
41229;SDS011;26964;50.428;19.218;2024-01-07T02:15:12;10.3;;;6.3;;
41229;SDS011;26964;50.428;19.218;2024-01-07T02:16:12;9.9;;;5.8;;
41229;SDS011;26964;50.428;19.218;2024-01-07T02:17:12;8.6;;;5.8;;
41229;SDS011;26964;50.428;19.218;2024-01-07T02:18:12;9.6;;;6.2;;
41229;SDS011;26964;50.428;19.218;2024-01-07T02:19:12;9.1;;;6.0;;
41229;SDS011;26964;50.428;19.218;2024-01-07T02:20:12;9.5;;;6.4;;
41229;SDS011;26964;50.428;19.218;2024-01-07T02:21:13;10.1;;;6.4;;
41229;SDS011;26964;50.428;19.218;2024-01-07T02:22:12;10.5;;;6.3;;
41229;SDS011;26964;50.428;19.218;2024-01-07T02:23:12;9.2;;;6.0;;
41229;SDS011;26964;50.428;19.218;2024-01-07T02:25:12;10.6;;;5.9;;
41229;SDS011;26964;50.428;19.218;2024-01-07T02:26:12;10.5;;;6.5;;
41229;SDS011;26964;50.428;19.218;2024-01-07T02:27:12;10.4;;;6.7;;
41229;SDS011;26964;50.428;19.218;2024-01-07T02:28:12;10.1;;;6.0;;
41229;SDS011;26964;50.428;19.218;2024-01-07T02:29:12;8.7;;;5.4;;
41229;SDS011;26964;50.428;19.218;2024-01-07T02:30:12;9.4;;;6.2;;
41229;SDS011;26964;50.428;19.218;2024-01-07T02:31:12;9.0;;;5.8;;
41229;SDS011;26964;50.428;19.218;2024-01-07T02:32:12;8.5;;;5.2;;
41229;SDS011;26964;50.428;19.218;2024-01-07T02:33:12;10.2;;;5.8;;
41229;SDS011;26964;50.428;19.218;2024-01-07T02:34:12;9.0;;;5.3;;
41229;SDS011;26964;50.428;19.218;2024-01-07T02:35:12;7.5;;;5.3;;
41229;SDS011;26964;50.428;19.218;2024-01-07T02:36:12;8.4;;;5.5;;
41229;SDS011;26964;50.428;19.218;2024-01-07T02:37:12;10.4;;;5.4;;
41229;SDS011;26964;50.428;19.218;2024-01-07T02:38:12;9.4;;;5.5;;
41229;SDS011;26964;50.428;19.218;2024-01-07T02:39:12;9.0;;;5.8;;
41229;SDS011;26964;50.428;19.218;2024-01-07T02:40:12;8.2;;;5.7;;
41229;SDS011;26964;50.428;19.218;2024-01-07T02:41:12;9.4;;;5.8;;
41229;SDS011;26964;50.428;19.218;2024-01-07T02:42:12;10.5;;;5.8;;
41229;SDS011;26964;50.428;19.218;2024-01-07T02:43:12;8.8;;;5.1;;
41229;SDS011;26964;50.428;19.218;2024-01-07T02:44:12;8.2;;;5.2;;
41229;SDS011;26964;50.428;19.218;2024-01-07T02:45:12;8.0;;;5.5;;
41229;SDS011;26964;50.428;19.218;2024-01-07T02:46:13;11.1;;;6.4;;
41229;SDS011;26964;50.428;19.218;2024-01-07T02:47:12;9.5;;;5.6;;
41229;SDS011;26964;50.428;19.218;2024-01-07T02:48:12;8.6;;;5.4;;
41229;SDS011;26964;50.428;19.218;2024-01-07T02:49:12;10.1;;;5.7;;
41229;SDS011;26964;50.428;19.218;2024-01-07T02:50:12;9.8;;;5.2;;
41229;SDS011;26964;50.428;19.218;2024-01-07T02:51:12;8.2;;;5.0;;
41229;SDS011;26964;50.428;19.218;2024-01-07T02:52:12;9.6;;;5.4;;
41229;SDS011;26964;50.428;19.218;2024-01-07T02:53:12;7.9;;;5.3;;
41229;SDS011;26964;50.428;19.218;2024-01-07T02:54:12;7.7;;;5.3;;
41229;SDS011;26964;50.428;19.218;2024-01-07T02:55:13;8.2;;;5.4;;
41229;SDS011;26964;50.428;19.218;2024-01-07T02:56:12;8.9;;;5.3;;
41229;SDS011;26964;50.428;19.218;2024-01-07T02:57:12;7.8;;;5.4;;
41229;SDS011;26964;50.428;19.218;2024-01-07T02:58:12;7.3;;;4.9;;
41229;SDS011;26964;50.428;19.218;2024-01-07T02:59:12;7.8;;;5.0;;
41229;SDS011;26964;50.428;19.218;2024-01-07T03:00:12;7.6;;;5.0;;
41229;SDS011;26964;50.428;19.218;2024-01-07T03:01:12;8.9;;;5.7;;
41229;SDS011;26964;50.428;19.218;2024-01-07T03:02:12;10.1;;;5.2;;
41229;SDS011;26964;50.428;19.218;2024-01-07T03:03:12;8.5;;;5.0;;
41229;SDS011;26964;50.428;19.218;2024-01-07T03:04:13;8.4;;;5.5;;
41229;SDS011;26964;50.428;19.218;2024-01-07T03:05:12;9.0;;;6.0;;
41229;SDS011;26964;50.428;19.218;2024-01-07T03:06:12;8.8;;;5.5;;
41229;SDS011;26964;50.428;19.218;2024-01-07T03:07:12;8.9;;;5.4;;
41229;SDS011;26964;50.428;19.218;2024-01-07T03:08:12;8.3;;;4.9;;
41229;SDS011;26964;50.428;19.218;2024-01-07T03:09:12;7.7;;;5.0;;
41229;SDS011;26964;50.428;19.218;2024-01-07T03:10:12;9.4;;;5.2;;
41229;SDS011;26964;50.428;19.218;2024-01-07T03:11:12;6.9;;;4.3;;
41229;SDS011;26964;50.428;19.218;2024-01-07T03:12:12;7.4;;;4.9;;
41229;SDS011;26964;50.428;19.218;2024-01-07T03:13:12;7.6;;;4.8;;
41229;SDS011;26964;50.428;19.218;2024-01-07T03:14:12;7.7;;;4.7;;
41229;SDS011;26964;50.428;19.218;2024-01-07T03:15:12;6.5;;;4.3;;
41229;SDS011;26964;50.428;19.218;2024-01-07T03:17:12;7.3;;;4.6;;
41229;SDS011;26964;50.428;19.218;2024-01-07T03:18:12;7.8;;;5.1;;
41229;SDS011;26964;50.428;19.218;2024-01-07T03:19:12;9.9;;;5.0;;
41229;SDS011;26964;50.428;19.218;2024-01-07T03:20:12;7.6;;;4.6;;
41229;SDS011;26964;50.428;19.218;2024-01-07T03:22:12;7.7;;;4.1;;
41229;SDS011;26964;50.428;19.218;2024-01-07T03:23:12;7.9;;;5.1;;
41229;SDS011;26964;50.428;19.218;2024-01-07T03:24:12;7.3;;;4.7;;
41229;SDS011;26964;50.428;19.218;2024-01-07T03:25:12;7.1;;;4.9;;
41229;SDS011;26964;50.428;19.218;2024-01-07T03:26:12;8.2;;;4.5;;
41229;SDS011;26964;50.428;19.218;2024-01-07T03:27:12;8.0;;;4.6;;
41229;SDS011;26964;50.428;19.218;2024-01-07T03:28:12;8.1;;;5.0;;
41229;SDS011;26964;50.428;19.218;2024-01-07T03:29:12;8.7;;;5.3;;
41229;SDS011;26964;50.428;19.218;2024-01-07T03:30:12;7.6;;;4.5;;
41229;SDS011;26964;50.428;19.218;2024-01-07T03:31:13;8.2;;;4.6;;
41229;SDS011;26964;50.428;19.218;2024-01-07T03:32:12;7.9;;;4.6;;
41229;SDS011;26964;50.428;19.218;2024-01-07T03:33:12;10.6;;;5.7;;
41229;SDS011;26964;50.428;19.218;2024-01-07T03:34:12;7.7;;;4.4;;
41229;SDS011;26964;50.428;19.218;2024-01-07T03:35:12;10.7;;;4.3;;
41229;SDS011;26964;50.428;19.218;2024-01-07T03:36:12;9.3;;;5.0;;
41229;SDS011;26964;50.428;19.218;2024-01-07T03:37:12;7.6;;;4.6;;
41229;SDS011;26964;50.428;19.218;2024-01-07T03:38:12;10.5;;;5.5;;
41229;SDS011;26964;50.428;19.218;2024-01-07T03:39:12;6.7;;;4.3;;
41229;SDS011;26964;50.428;19.218;2024-01-07T03:40:12;7.8;;;4.7;;
41229;SDS011;26964;50.428;19.218;2024-01-07T03:42:12;7.3;;;4.3;;
41229;SDS011;26964;50.428;19.218;2024-01-07T03:43:12;6.4;;;4.3;;
41229;SDS011;26964;50.428;19.218;2024-01-07T03:44:12;7.1;;;4.5;;
41229;SDS011;26964;50.428;19.218;2024-01-07T03:45:12;7.0;;;4.3;;
41229;SDS011;26964;50.428;19.218;2024-01-07T03:46:12;8.3;;;4.7;;
41229;SDS011;26964;50.428;19.218;2024-01-07T03:47:12;8.4;;;4.6;;
41229;SDS011;26964;50.428;19.218;2024-01-07T03:48:12;7.9;;;4.6;;
41229;SDS011;26964;50.428;19.218;2024-01-07T03:49:12;9.3;;;4.5;;
41229;SDS011;26964;50.428;19.218;2024-01-07T03:50:12;8.2;;;5.1;;
41229;SDS011;26964;50.428;19.218;2024-01-07T03:51:12;7.2;;;4.2;;
41229;SDS011;26964;50.428;19.218;2024-01-07T03:52:12;8.1;;;4.8;;
41229;SDS011;26964;50.428;19.218;2024-01-07T03:53:12;7.3;;;4.4;;
41229;SDS011;26964;50.428;19.218;2024-01-07T03:54:12;9.5;;;5.0;;
41229;SDS011;26964;50.428;19.218;2024-01-07T03:55:12;6.9;;;4.7;;
41229;SDS011;26964;50.428;19.218;2024-01-07T03:56:12;6.9;;;4.3;;
41229;SDS011;26964;50.428;19.218;2024-01-07T03:57:12;9.1;;;4.6;;
41229;SDS011;26964;50.428;19.218;2024-01-07T03:58:12;7.3;;;4.7;;
41229;SDS011;26964;50.428;19.218;2024-01-07T03:59:12;6.0;;;4.1;;
41229;SDS011;26964;50.428;19.218;2024-01-07T04:00:12;7.3;;;4.1;;
41229;SDS011;26964;50.428;19.218;2024-01-07T04:02:12;6.1;;;4.2;;
41229;SDS011;26964;50.428;19.218;2024-01-07T04:03:12;7.5;;;4.6;;
41229;SDS011;26964;50.428;19.218;2024-01-07T04:04:13;6.3;;;4.0;;
41229;SDS011;26964;50.428;19.218;2024-01-07T04:05:12;7.2;;;4.2;;
41229;SDS011;26964;50.428;19.218;2024-01-07T04:06:12;6.5;;;4.2;;
41229;SDS011;26964;50.428;19.218;2024-01-07T04:07:12;7.5;;;4.3;;
41229;SDS011;26964;50.428;19.218;2024-01-07T04:08:12;6.4;;;4.0;;
41229;SDS011;26964;50.428;19.218;2024-01-07T04:09:12;7.8;;;4.4;;
41229;SDS011;26964;50.428;19.218;2024-01-07T04:10:12;7.6;;;4.4;;
41229;SDS011;26964;50.428;19.218;2024-01-07T04:11:12;8.7;;;4.3;;
41229;SDS011;26964;50.428;19.218;2024-01-07T04:12:12;6.8;;;4.3;;
41229;SDS011;26964;50.428;19.218;2024-01-07T04:13:12;6.5;;;4.4;;
41229;SDS011;26964;50.428;19.218;2024-01-07T04:14:13;7.5;;;4.4;;
41229;SDS011;26964;50.428;19.218;2024-01-07T04:15:12;7.8;;;3.9;;
41229;SDS011;26964;50.428;19.218;2024-01-07T04:17:12;7.4;;;4.2;;
41229;SDS011;26964;50.428;19.218;2024-01-07T04:18:12;6.6;;;4.1;;
41229;SDS011;26964;50.428;19.218;2024-01-07T04:19:12;5.8;;;4.4;;
41229;SDS011;26964;50.428;19.218;2024-01-07T04:20:12;7.9;;;4.0;;
41229;SDS011;26964;50.428;19.218;2024-01-07T04:21:12;6.0;;;4.2;;
41229;SDS011;26964;50.428;19.218;2024-01-07T04:22:12;6.9;;;4.2;;
41229;SDS011;26964;50.428;19.218;2024-01-07T04:23:12;10.5;;;5.0;;
41229;SDS011;26964;50.428;19.218;2024-01-07T04:24:12;7.2;;;4.6;;
41229;SDS011;26964;50.428;19.218;2024-01-07T04:25:12;6.9;;;3.9;;
41229;SDS011;26964;50.428;19.218;2024-01-07T04:26:12;6.3;;;3.9;;
41229;SDS011;26964;50.428;19.218;2024-01-07T04:27:12;7.2;;;4.1;;
41229;SDS011;26964;50.428;19.218;2024-01-07T04:28:12;6.6;;;4.3;;
41229;SDS011;26964;50.428;19.218;2024-01-07T04:29:12;7.2;;;4.4;;
41229;SDS011;26964;50.428;19.218;2024-01-07T04:30:12;8.4;;;4.4;;
41229;SDS011;26964;50.428;19.218;2024-01-07T04:31:12;7.9;;;4.6;;
41229;SDS011;26964;50.428;19.218;2024-01-07T04:32:12;6.5;;;3.8;;
41229;SDS011;26964;50.428;19.218;2024-01-07T04:33:12;6.6;;;4.1;;
41229;SDS011;26964;50.428;19.218;2024-01-07T04:34:12;7.5;;;4.6;;
41229;SDS011;26964;50.428;19.218;2024-01-07T04:35:12;7.4;;;4.6;;
41229;SDS011;26964;50.428;19.218;2024-01-07T04:36:12;7.5;;;4.6;;
41229;SDS011;26964;50.428;19.218;2024-01-07T04:37:12;7.1;;;4.2;;
41229;SDS011;26964;50.428;19.218;2024-01-07T04:38:12;7.5;;;4.2;;
41229;SDS011;26964;50.428;19.218;2024-01-07T04:39:12;6.5;;;4.2;;
41229;SDS011;26964;50.428;19.218;2024-01-07T04:40:12;7.5;;;4.1;;
41229;SDS011;26964;50.428;19.218;2024-01-07T04:41:12;8.5;;;4.5;;
41229;SDS011;26964;50.428;19.218;2024-01-07T04:42:12;7.7;;;4.4;;
41229;SDS011;26964;50.428;19.218;2024-01-07T04:43:12;8.1;;;4.2;;
41229;SDS011;26964;50.428;19.218;2024-01-07T04:44:12;6.2;;;3.9;;
41229;SDS011;26964;50.428;19.218;2024-01-07T04:45:12;6.9;;;4.5;;
41229;SDS011;26964;50.428;19.218;2024-01-07T04:46:12;7.3;;;4.4;;
41229;SDS011;26964;50.428;19.218;2024-01-07T04:48:12;7.5;;;4.2;;
41229;SDS011;26964;50.428;19.218;2024-01-07T04:49:12;8.7;;;4.7;;
41229;SDS011;26964;50.428;19.218;2024-01-07T04:50:12;8.4;;;4.8;;
41229;SDS011;26964;50.428;19.218;2024-01-07T04:51:12;7.6;;;4.2;;
41229;SDS011;26964;50.428;19.218;2024-01-07T04:52:12;6.3;;;4.2;;
41229;SDS011;26964;50.428;19.218;2024-01-07T04:53:12;7.1;;;4.3;;
41229;SDS011;26964;50.428;19.218;2024-01-07T04:54:12;9.0;;;4.8;;
41229;SDS011;26964;50.428;19.218;2024-01-07T04:55:12;6.0;;;3.9;;
41229;SDS011;26964;50.428;19.218;2024-01-07T04:56:12;7.2;;;4.4;;
41229;SDS011;26964;50.428;19.218;2024-01-07T04:57:12;7.5;;;4.5;;
41229;SDS011;26964;50.428;19.218;2024-01-07T04:58:12;6.2;;;4.0;;
41229;SDS011;26964;50.428;19.218;2024-01-07T04:59:12;5.8;;;3.8;;
41229;SDS011;26964;50.428;19.218;2024-01-07T05:00:12;6.6;;;4.3;;
41229;SDS011;26964;50.428;19.218;2024-01-07T05:01:12;7.3;;;4.4;;
41229;SDS011;26964;50.428;19.218;2024-01-07T05:02:12;6.4;;;4.5;;
41229;SDS011;26964;50.428;19.218;2024-01-07T05:03:12;6.7;;;4.3;;
41229;SDS011;26964;50.428;19.218;2024-01-07T05:04:12;7.8;;;4.6;;
41229;SDS011;26964;50.428;19.218;2024-01-07T05:05:12;8.1;;;3.9;;
41229;SDS011;26964;50.428;19.218;2024-01-07T05:06:12;5.8;;;3.9;;
41229;SDS011;26964;50.428;19.218;2024-01-07T05:07:12;6.3;;;4.0;;
41229;SDS011;26964;50.428;19.218;2024-01-07T05:08:12;8.5;;;4.5;;
41229;SDS011;26964;50.428;19.218;2024-01-07T05:09:12;7.6;;;5.1;;
41229;SDS011;26964;50.428;19.218;2024-01-07T05:10:12;8.2;;;4.7;;
41229;SDS011;26964;50.428;19.218;2024-01-07T05:11:12;11.1;;;5.1;;
41229;SDS011;26964;50.428;19.218;2024-01-07T05:12:12;8.6;;;4.7;;
41229;SDS011;26964;50.428;19.218;2024-01-07T05:13:12;7.7;;;4.9;;
41229;SDS011;26964;50.428;19.218;2024-01-07T05:14:12;9.5;;;4.8;;
41229;SDS011;26964;50.428;19.218;2024-01-07T05:15:12;8.8;;;4.8;;
41229;SDS011;26964;50.428;19.218;2024-01-07T05:17:12;7.9;;;4.5;;
41229;SDS011;26964;50.428;19.218;2024-01-07T05:18:12;7.9;;;4.7;;
41229;SDS011;26964;50.428;19.218;2024-01-07T05:19:12;9.7;;;5.2;;
41229;SDS011;26964;50.428;19.218;2024-01-07T05:20:12;7.4;;;4.8;;
41229;SDS011;26964;50.428;19.218;2024-01-07T05:21:12;8.8;;;5.1;;
41229;SDS011;26964;50.428;19.218;2024-01-07T05:22:12;7.1;;;4.7;;
41229;SDS011;26964;50.428;19.218;2024-01-07T05:23:12;8.2;;;4.9;;
41229;SDS011;26964;50.428;19.218;2024-01-07T05:24:12;7.4;;;4.7;;
41229;SDS011;26964;50.428;19.218;2024-01-07T05:25:12;7.9;;;4.9;;
41229;SDS011;26964;50.428;19.218;2024-01-07T05:26:12;7.0;;;4.4;;
41229;SDS011;26964;50.428;19.218;2024-01-07T05:27:12;8.8;;;4.8;;
41229;SDS011;26964;50.428;19.218;2024-01-07T05:28:13;6.4;;;4.1;;
41229;SDS011;26964;50.428;19.218;2024-01-07T05:29:12;7.9;;;4.5;;
41229;SDS011;26964;50.428;19.218;2024-01-07T05:30:12;6.6;;;4.1;;
41229;SDS011;26964;50.428;19.218;2024-01-07T05:32:12;7.8;;;4.4;;
41229;SDS011;26964;50.428;19.218;2024-01-07T05:33:12;8.1;;;4.7;;
41229;SDS011;26964;50.428;19.218;2024-01-07T05:34:12;7.6;;;4.6;;
41229;SDS011;26964;50.428;19.218;2024-01-07T05:35:12;6.2;;;4.3;;
41229;SDS011;26964;50.428;19.218;2024-01-07T05:36:12;7.0;;;4.4;;
41229;SDS011;26964;50.428;19.218;2024-01-07T05:37:12;7.3;;;4.5;;
41229;SDS011;26964;50.428;19.218;2024-01-07T05:38:12;6.9;;;4.2;;
41229;SDS011;26964;50.428;19.218;2024-01-07T05:39:12;6.4;;;4.3;;
41229;SDS011;26964;50.428;19.218;2024-01-07T05:40:12;7.1;;;4.2;;
41229;SDS011;26964;50.428;19.218;2024-01-07T05:41:12;7.0;;;4.1;;
41229;SDS011;26964;50.428;19.218;2024-01-07T05:42:12;8.4;;;4.7;;
41229;SDS011;26964;50.428;19.218;2024-01-07T05:43:12;6.7;;;4.1;;
41229;SDS011;26964;50.428;19.218;2024-01-07T05:44:12;7.8;;;4.5;;
41229;SDS011;26964;50.428;19.218;2024-01-07T05:45:12;8.4;;;4.5;;
41229;SDS011;26964;50.428;19.218;2024-01-07T05:46:12;6.4;;;4.2;;
41229;SDS011;26964;50.428;19.218;2024-01-07T05:47:12;7.7;;;4.5;;
41229;SDS011;26964;50.428;19.218;2024-01-07T05:48:12;7.0;;;4.6;;
41229;SDS011;26964;50.428;19.218;2024-01-07T05:49:12;8.6;;;4.5;;
41229;SDS011;26964;50.428;19.218;2024-01-07T05:50:12;7.9;;;4.5;;
41229;SDS011;26964;50.428;19.218;2024-01-07T05:51:12;6.9;;;4.5;;
41229;SDS011;26964;50.428;19.218;2024-01-07T05:52:12;8.1;;;4.9;;
41229;SDS011;26964;50.428;19.218;2024-01-07T05:53:12;6.8;;;4.4;;
41229;SDS011;26964;50.428;19.218;2024-01-07T05:54:12;5.8;;;4.0;;
41229;SDS011;26964;50.428;19.218;2024-01-07T05:55:12;8.3;;;5.0;;
41229;SDS011;26964;50.428;19.218;2024-01-07T05:56:12;7.7;;;4.5;;
41229;SDS011;26964;50.428;19.218;2024-01-07T05:57:12;8.0;;;4.7;;
41229;SDS011;26964;50.428;19.218;2024-01-07T05:58:12;8.2;;;4.9;;
41229;SDS011;26964;50.428;19.218;2024-01-07T05:59:12;6.8;;;4.4;;
41229;SDS011;26964;50.428;19.218;2024-01-07T06:00:12;6.3;;;4.3;;
41229;SDS011;26964;50.428;19.218;2024-01-07T06:01:17;8.0;;;4.7;;
41229;SDS011;26964;50.428;19.218;2024-01-07T06:02:12;7.8;;;4.8;;
41229;SDS011;26964;50.428;19.218;2024-01-07T06:03:12;7.1;;;4.9;;
41229;SDS011;26964;50.428;19.218;2024-01-07T06:04:12;7.4;;;4.8;;
41229;SDS011;26964;50.428;19.218;2024-01-07T06:05:12;8.8;;;5.9;;
41229;SDS011;26964;50.428;19.218;2024-01-07T06:06:12;7.9;;;5.0;;
41229;SDS011;26964;50.428;19.218;2024-01-07T06:07:12;9.0;;;5.4;;
41229;SDS011;26964;50.428;19.218;2024-01-07T06:08:12;7.7;;;5.1;;
41229;SDS011;26964;50.428;19.218;2024-01-07T06:09:12;7.8;;;4.8;;
41229;SDS011;26964;50.428;19.218;2024-01-07T06:10:12;7.1;;;4.4;;
41229;SDS011;26964;50.428;19.218;2024-01-07T06:11:12;9.3;;;5.1;;
41229;SDS011;26964;50.428;19.218;2024-01-07T06:12:12;6.9;;;4.3;;
41229;SDS011;26964;50.428;19.218;2024-01-07T06:13:12;8.3;;;4.8;;